sensor_id;sensor_type;location;lat;lon;timestamp;P1;durP1;ratioP1;P2;durP2;ratioP2
20995;SDS011;10656;52.200;21.052;2023-07-20T00:32:54;4.33;;;3.70;;
20995;SDS011;10656;52.200;21.052;2023-07-20T00:58:18;6.73;;;4.73;;
20995;SDS011;10656;52.200;21.052;2023-07-20T01:00:57;5.07;;;4.43;;
20995;SDS011;10656;52.200;21.052;2023-07-20T01:38:55;3.03;;;2.73;;
20995;SDS011;10656;52.200;21.052;2023-07-20T01:41:56;4.63;;;3.20;;
20995;SDS011;10656;52.200;21.052;2023-07-20T02:04:00;3.63;;;3.23;;
20995;SDS011;10656;52.200;21.052;2023-07-20T02:19:28;3.80;;;3.50;;
20995;SDS011;10656;52.200;21.052;2023-07-20T02:44:34;4.23;;;3.50;;
20995;SDS011;10656;52.200;21.052;2023-07-20T03:45:33;5.87;;;3.60;;
20995;SDS011;10656;52.200;21.052;2023-07-20T04:15:49;5.43;;;4.20;;
20995;SDS011;10656;52.200;21.052;2023-07-20T04:36:25;6.93;;;4.90;;
20995;SDS011;10656;52.200;21.052;2023-07-20T04:48:10;7.97;;;6.57;;
20995;SDS011;10656;52.200;21.052;2023-07-20T06:02:26;6.10;;;5.50;;
20995;SDS011;10656;52.200;21.052;2023-07-20T06:28:00;8.60;;;6.63;;
20995;SDS011;10656;52.200;21.052;2023-07-20T06:48:21;10.90;;;8.20;;
20995;SDS011;10656;52.200;21.052;2023-07-20T07:43:27;25.03;;;8.10;;
20995;SDS011;10656;52.200;21.052;2023-07-20T08:19:32;7.63;;;6.83;;
20995;SDS011;10656;52.200;21.052;2023-07-20T08:50:00;10.87;;;8.47;;
20995;SDS011;10656;52.200;21.052;2023-07-20T09:15:11;7.57;;;6.83;;
20995;SDS011;10656;52.200;21.052;2023-07-20T09:35:29;8.63;;;5.63;;
20995;SDS011;10656;52.200;21.052;2023-07-20T09:56:00;7.25;;;5.20;;
20995;SDS011;10656;52.200;21.052;2023-07-20T10:20:44;4.18;;;3.22;;
20995;SDS011;10656;52.200;21.052;2023-07-20T10:46:06;4.40;;;3.10;;
20995;SDS011;10656;52.200;21.052;2023-07-20T11:22:20;3.70;;;3.10;;
20995;SDS011;10656;52.200;21.052;2023-07-20T11:52:48;3.72;;;2.85;;
20995;SDS011;10656;52.200;21.052;2023-07-20T11:57:06;3.35;;;3.10;;
20995;SDS011;10656;52.200;21.052;2023-07-20T12:13:05;3.47;;;2.67;;
20995;SDS011;10656;52.200;21.052;2023-07-20T12:20:24;3.03;;;2.80;;
20995;SDS011;10656;52.200;21.052;2023-07-20T12:43:29;2.92;;;2.72;;
20995;SDS011;10656;52.200;21.052;2023-07-20T13:08:37;2.60;;;2.40;;
20995;SDS011;10656;52.200;21.052;2023-07-20T13:39:07;3.65;;;3.45;;
20995;SDS011;10656;52.200;21.052;2023-07-20T14:04:34;3.60;;;3.30;;
20995;SDS011;10656;52.200;21.052;2023-07-20T14:24:42;4.10;;;3.17;;
20995;SDS011;10656;52.200;21.052;2023-07-20T14:55:07;2.85;;;2.15;;
20995;SDS011;10656;52.200;21.052;2023-07-20T15:56:07;1.92;;;1.80;;
20995;SDS011;10656;52.200;21.052;2023-07-20T16:26:20;1.92;;;1.70;;
20995;SDS011;10656;52.200;21.052;2023-07-20T17:17:18;4.07;;;3.20;;
20995;SDS011;10656;52.200;21.052;2023-07-20T17:37:33;4.93;;;3.17;;
20995;SDS011;10656;52.200;21.052;2023-07-20T17:40:16;4.00;;;3.30;;
20995;SDS011;10656;52.200;21.052;2023-07-20T18:13:03;3.27;;;2.97;;
20995;SDS011;10656;52.200;21.052;2023-07-20T18:38:34;4.23;;;2.97;;
20995;SDS011;10656;52.200;21.052;2023-07-20T18:58:52;4.13;;;3.73;;
20995;SDS011;10656;52.200;21.052;2023-07-20T19:54:27;9.47;;;8.47;;
20995;SDS011;10656;52.200;21.052;2023-07-20T20:30:01;9.73;;;8.43;;
20995;SDS011;10656;52.200;21.052;2023-07-20T21:05:32;9.20;;;8.30;;
20995;SDS011;10656;52.200;21.052;2023-07-20T21:35:27;8.33;;;7.03;;
20995;SDS011;10656;52.200;21.052;2023-07-20T21:56:06;7.53;;;6.73;;
20995;SDS011;10656;52.200;21.052;2023-07-20T22:31:38;7.67;;;6.87;;
20995;SDS011;10656;52.200;21.052;2023-07-20T22:57:16;7.97;;;6.33;;
20995;SDS011;10656;52.200;21.052;2023-07-20T23:01:34;6.70;;;6.10;;
20995;SDS011;10656;52.200;21.052;2023-07-20T23:09:00;6.90;;;6.13;;
20995;SDS011;10656;52.200;21.052;2023-07-20T23:21:55;7.53;;;6.77;;
